Time;durP1;ratioP1;P1;durP2;ratioP2;P2;SDS_P1;SDS_P2;PMS_P1;PMS_P2;Temp;Humidity;BMP_temperature;BMP_pressure;BME280_temperature;BME280_humidity;BME280_pressure;Samples;Min_cycle;Max_cycle;Signal;HPM_P1;HPM_P2
2021/06/02 00:00:11;;;;;;;4.57;2.55;;;9.80;99.90;;;;;;173213;28;1344;-75
2021/06/02 00:00:17;;;;;;;4.13;2.54;;;9.80;99.90;;;;;;173157;28;1555;-76
2021/06/02 00:00:23;;;;;;;3.60;2.40;;;9.80;99.90;;;;;;173381;28;914;-76
2021/06/02 00:00:29;;;;;;;4.20;2.30;;;9.80;99.90;;;;;;173230;28;931;-76
2021/06/02 00:00:35;;;;;;;4.18;2.25;;;9.80;99.90;;;;;;173261;28;1232;-76
2021/06/02 00:00:40;;;;;;;4.13;2.22;;;9.80;99.90;;;;;;174054;28;1045;-75
2021/06/02 00:00:46;;;;;;;4.57;2.22;;;9.80;99.90;;;;;;172823;28;1225;-76
2021/06/02 00:00:52;;;;;;;5.07;2.20;;;9.80;99.90;;;;;;173233;28;1283;-76
2021/06/02 00:01:07;;;;;;;4.60;2.28;;;9.90;99.90;;;;;;173331;28;894;-76
2021/06/02 00:01:16;;;;;;;5.38;2.29;;;9.80;99.90;;;;;;173087;28;1347;-76
2021/06/02 00:01:24;;;;;;;4.53;2.33;;;9.80;99.90;;;;;;173982;28;1041;-76
2021/06/02 00:01:36;;;;;;;4.40;2.35;;;9.80;99.90;;;;;;174703;28;1052;-75
2021/06/02 00:02:01;;;;;;;3.95;2.30;;;9.80;99.90;;;;;;173951;28;1476;-75
2021/06/02 00:02:08;;;;;;;4.06;2.30;;;9.80;99.90;;;;;;173764;28;1494;-76
2021/06/02 00:02:14;;;;;;;3.56;2.36;;;9.80;99.90;;;;;;173899;28;1520;-75
2021/06/02 00:02:20;;;;;;;3.50;2.42;;;9.80;99.90;;;;;;173884;28;1442;-76
2021/06/02 00:02:26;;;;;;;3.65;2.47;;;9.80;99.90;;;;;;173978;28;799;-76
2021/06/02 00:02:32;;;;;;;4.07;2.53;;;9.80;99.90;;;;;;173530;28;1184;-76
2021/06/02 00:02:59;;;;;;;4.70;2.78;;;9.80;99.90;;;;;;174026;28;879;-75
2021/06/02 00:03:05;;;;;;;5.31;2.78;;;9.80;99.90;;;;;;173992;28;1193;-76
2021/06/02 00:03:14;;;;;;;5.93;2.50;;;9.80;99.90;;;;;;173323;28;957;-76
2021/06/02 00:03:30;;;;;;;5.71;2.53;;;9.80;99.90;;;;;;173246;28;1059;-76
2021/06/02 00:03:39;;;;;;;6.26;2.71;;;9.80;99.90;;;;;;173996;28;1187;-76
2021/06/02 00:03:47;;;;;;;5.23;2.77;;;9.80;99.90;;;;;;173886;28;1602;-76
2021/06/02 00:03:54;;;;;;;4.77;2.77;;;9.80;99.90;;;;;;174589;28;1286;-76
2021/06/02 00:04:03;;;;;;;5.88;2.78;;;9.80;99.90;;;;;;174720;28;1031;-75
2021/06/02 00:04:11;;;;;;;5.63;2.70;;;9.80;99.90;;;;;;174458;28;1180;-76
2021/06/02 00:04:22;;;;;;;5.17;2.55;;;9.80;99.90;;;;;;174637;28;924;-75
2021/06/02 00:04:32;;;;;;;4.31;2.51;;;9.80;99.90;;;;;;173096;28;1408;-76
2021/06/02 00:04:48;;;;;;;3.90;2.50;;;9.80;99.90;;;;;;173229;28;1468;-75
2021/06/02 00:04:54;;;;;;;4.20;2.53;;;9.80;99.90;;;;;;173287;28;1234;-76
2021/06/02 00:05:02;;;;;;;3.83;2.40;;;9.80;99.90;;;;;;174054;28;890;-76
2021/06/02 00:05:10;;;;;;;3.57;2.47;;;9.80;99.90;;;;;;173860;28;1373;-76
2021/06/02 00:05:18;;;;;;;3.97;2.50;;;9.80;99.90;;;;;;173182;28;1233;-76
2021/06/02 00:05:23;;;;;;;4.40;2.42;;;9.70;99.90;;;;;;173264;28;969;-76
2021/06/02 00:05:30;;;;;;;4.53;2.30;;;9.80;99.90;;;;;;172514;28;1111;-76
2021/06/02 00:05:36;;;;;;;4.86;2.30;;;9.80;99.90;;;;;;173246;28;1377;-76
2021/06/02 00:05:47;;;;;;;4.88;2.20;;;9.80;99.90;;;;;;172677;28;982;-76
2021/06/02 00:05:55;;;;;;;4.68;2.30;;;9.80;99.90;;;;;;172463;28;1458;-76
2021/06/02 00:06:01;;;;;;;5.95;2.43;;;9.80;99.90;;;;;;172568;28;971;-76
2021/06/02 00:06:09;;;;;;;6.10;2.50;;;9.80;99.90;;;;;;173217;28;1207;-76
2021/06/02 00:06:15;;;;;;;6.05;2.52;;;9.80;99.90;;;;;;173312;28;946;-75
2021/06/02 00:06:26;;;;;;;5.78;2.60;;;9.80;99.90;;;;;;172529;28;1365;-76
2021/06/02 00:06:35;;;;;;;5.08;2.57;;;9.80;99.90;;;;;;173115;28;1424;-76
2021/06/02 00:06:43;;;;;;;5.04;2.50;;;9.80;99.90;;;;;;173871;28;1374;-76
2021/06/02 00:06:50;;;;;;;5.63;2.30;;;9.70;99.90;;;;;;173292;28;824;-76
2021/06/02 00:07:06;;;;;;;5.88;2.40;;;9.80;99.90;;;;;;173600;28;1503;-76
2021/06/02 00:07:19;;;;;;;7.20;2.33;;;9.80;99.90;;;;;;173095;28;1748;-76
2021/06/02 00:07:25;;;;;;;7.22;2.38;;;9.80;99.90;;;;;;174672;28;1204;-76
2021/06/02 00:07:32;;;;;;;6.20;2.40;;;9.70;99.90;;;;;;174503;28;1414;-76
2021/06/02 00:07:42;;;;;;;5.22;2.52;;;9.70;99.90;;;;;;174536;28;1361;-75
2021/06/02 00:07:49;;;;;;;4.51;2.60;;;9.80;99.90;;;;;;173883;28;2940;-75
2021/06/02 00:07:59;;;;;;;4.94;2.54;;;9.70;99.90;;;;;;173022;28;1480;-76
2021/06/02 00:08:09;;;;;;;4.67;2.60;;;9.80;99.90;;;;;;172492;28;1425;-76
2021/06/02 00:08:16;;;;;;;4.20;2.50;;;9.70;99.90;;;;;;172464;28;1499;-76
2021/06/02 00:08:24;;;;;;;3.66;2.40;;;9.70;99.90;;;;;;173204;28;864;-76
2021/06/02 00:08:33;;;;;;;4.38;2.38;;;9.70;99.90;;;;;;173511;28;1556;-76
2021/06/02 00:08:39;;;;;;;5.50;2.37;;;9.70;99.90;;;;;;173222;28;1270;-76
2021/06/02 00:08:45;;;;;;;5.60;2.45;;;9.70;99.90;;;;;;174059;28;958;-76
2021/06/02 00:08:54;;;;;;;5.53;2.50;;;9.70;99.90;;;;;;173279;28;970;-76
2021/06/02 00:09:00;;;;;;;4.81;2.53;;;9.80;99.90;;;;;;174606;28;1180;-76
2021/06/02 00:09:06;;;;;;;3.77;2.60;;;9.70;99.90;;;;;;174650;28;1358;-76
2021/06/02 00:09:13;;;;;;;3.88;2.60;;;9.70;99.90;;;;;;174535;28;1397;-76
2021/06/02 00:09:19;;;;;;;5.44;2.60;;;9.70;99.90;;;;;;173200;28;1444;-76
2021/06/02 00:09:27;;;;;;;6.25;2.55;;;9.70;99.90;;;;;;174046;28;867;-76
2021/06/02 00:09:33;;;;;;;6.12;2.50;;;9.70;99.90;;;;;;172462;28;1363;-76
2021/06/02 00:09:39;;;;;;;7.76;2.56;;;9.70;99.90;;;;;;173164;28;1327;-76
2021/06/02 00:09:46;;;;;;;7.32;2.45;;;9.70;99.90;;;;;;173940;28;1182;-76
2021/06/02 00:09:54;;;;;;;6.38;2.34;;;9.70;99.90;;;;;;173821;28;1121;-76
2021/06/02 00:10:00;;;;;;;6.07;2.30;;;9.70;99.90;;;;;;173095;28;875;-76
2021/06/02 00:10:10;;;;;;;4.93;2.25;;;9.70;99.90;;;;;;173895;28;1326;-75
2021/06/02 00:10:20;;;;;;;4.36;2.47;;;9.70;99.90;;;;;;174656;28;1295;-75
2021/06/02 00:10:26;;;;;;;3.99;2.60;;;9.80;99.90;;;;;;173850;28;1532;-76
2021/06/02 00:10:32;;;;;;;4.50;2.60;;;9.70;99.90;;;;;;173774;28;1417;-75
2021/06/02 00:10:37;;;;;;;5.87;2.60;;;9.70;99.90;;;;;;173219;28;851;-76
2021/06/02 00:10:43;;;;;;;6.32;2.33;;;9.70;99.90;;;;;;173952;28;1407;-76
2021/06/02 00:10:50;;;;;;;6.53;2.22;;;9.70;99.90;;;;;;173927;28;1357;-76
2021/06/02 00:10:58;;;;;;;6.23;2.30;;;9.70;99.90;;;;;;173889;28;1244;-76
2021/06/02 00:11:07;;;;;;;7.02;2.40;;;9.70;99.90;;;;;;174464;28;1464;-76
2021/06/02 00:11:13;;;;;;;5.93;2.46;;;9.70;99.90;;;;;;173983;28;1042;-76
2021/06/02 00:11:19;;;;;;;5.93;2.75;;;9.70;99.90;;;;;;173191;28;1359;-76
2021/06/02 00:11:26;;;;;;;6.56;2.86;;;9.70;99.90;;;;;;171832;28;1387;-76
2021/06/02 00:11:36;;;;;;;5.63;2.77;;;9.70;99.90;;;;;;172569;28;1468;-76
2021/06/02 00:11:43;;;;;;;4.92;2.70;;;9.70;99.90;;;;;;173297;28;1197;-76
2021/06/02 00:11:50;;;;;;;4.73;2.60;;;9.70;99.90;;;;;;173921;28;1314;-76
2021/06/02 00:12:00;;;;;;;4.67;2.53;;;9.70;99.90;;;;;;173891;28;1424;-76
2021/06/02 00:12:11;;;;;;;5.75;2.61;;;9.70;99.90;;;;;;173843;28;2046;-77
2021/06/02 00:12:17;;;;;;;5.33;2.50;;;9.70;99.90;;;;;;174052;28;852;-76
2021/06/02 00:12:23;;;;;;;7.10;2.60;;;9.70;99.90;;;;;;173939;28;1273;-75
2021/06/02 00:12:29;;;;;;;10.47;2.50;;;9.70;99.90;;;;;;172715;28;805;-75
2021/06/02 00:12:35;;;;;;;10.05;2.60;;;9.70;99.90;;;;;;172646;28;907;-76
2021/06/02 00:12:42;;;;;;;10.47;2.70;;;9.70;99.90;;;;;;173190;28;1309;-76
2021/06/02 00:12:48;;;;;;;10.73;2.60;;;9.70;99.90;;;;;;173278;28;1033;-75
2021/06/02 00:12:54;;;;;;;9.25;2.50;;;9.70;99.90;;;;;;172632;28;947;-75
2021/06/02 00:13:00;;;;;;;6.20;2.50;;;9.70;99.90;;;;;;172602;28;927;-75
2021/06/02 00:13:07;;;;;;;6.27;2.40;;;9.70;99.90;;;;;;173068;28;1410;-76
2021/06/02 00:13:14;;;;;;;6.78;2.40;;;9.70;99.90;;;;;;173862;28;1312;-76
2021/06/02 00:13:20;;;;;;;6.83;2.40;;;9.70;99.90;;;;;;173259;28;1453;-76
2021/06/02 00:13:27;;;;;;;6.36;2.38;;;9.70;99.90;;;;;;171890;28;1529;-75
2021/06/02 00:13:36;;;;;;;6.05;2.45;;;9.70;99.90;;;;;;172523;28;1030;-76
2021/06/02 00:13:42;;;;;;;5.70;2.51;;;9.70;99.90;;;;;;172491;28;1258;-76
2021/06/02 00:13:48;;;;;;;5.28;2.53;;;9.70;99.90;;;;;;172605;28;982;-76
2021/06/02 00:13:55;;;;;;;5.82;2.65;;;9.70;99.90;;;;;;171802;28;1441;-76
2021/06/02 00:14:01;;;;;;;5.50;2.47;;;9.70;99.90;;;;;;171962;28;903;-76
2021/06/02 00:14:09;;;;;;;4.80;2.33;;;9.70;99.90;;;;;;171870;28;1328;-76
2021/06/02 00:14:18;;;;;;;4.83;2.50;;;9.70;99.90;;;;;;172931;28;1343;-76
2021/06/02 00:14:27;;;;;;;4.45;2.42;;;9.70;99.90;;;;;;173185;28;1351;-76
2021/06/02 00:14:33;;;;;;;5.17;2.43;;;9.70;99.90;;;;;;173857;28;1433;-76
2021/06/02 00:14:39;;;;;;;5.00;2.40;;;9.70;99.90;;;;;;173294;28;950;-76
2021/06/02 00:14:46;;;;;;;4.98;2.40;;;9.70;99.90;;;;;;172532;28;1446;-76
2021/06/02 00:14:52;;;;;;;5.38;2.34;;;9.70;99.90;;;;;;172626;28;907;-76
2021/06/02 00:14:58;;;;;;;4.90;2.40;;;9.70;99.90;;;;;;172554;28;923;-76
2021/06/02 00:15:07;;;;;;;4.50;2.40;;;9.70;99.90;;;;;;173363;28;1461;-76
2021/06/02 00:15:14;;;;;;;5.06;2.33;;;9.70;99.90;;;;;;173803;28;1676;-76
2021/06/02 00:15:21;;;;;;;4.88;2.30;;;9.70;99.90;;;;;;174565;28;1489;-75
2021/06/02 00:15:26;;;;;;;4.26;2.20;;;9.70;99.90;;;;;;174511;28;1920;-76
2021/06/02 00:15:32;;;;;;;4.38;2.30;;;9.70;99.90;;;;;;173926;28;1204;-76
2021/06/02 00:15:38;;;;;;;4.00;2.33;;;9.70;99.90;;;;;;174547;28;1209;-75
2021/06/02 00:15:46;;;;;;;4.17;2.50;;;9.70;99.90;;;;;;174651;28;1271;-75
2021/06/02 00:15:52;;;;;;;4.09;2.50;;;9.70;99.90;;;;;;173826;28;1582;-77
2021/06/02 00:15:58;;;;;;;4.20;2.47;;;9.70;99.90;;;;;;174246;28;963;-76
2021/06/02 00:16:04;;;;;;;4.88;2.40;;;9.70;99.90;;;;;;174020;28;1085;-75
2021/06/02 00:16:10;;;;;;;4.50;2.40;;;9.70;99.90;;;;;;173707;28;883;-76
2021/06/02 00:16:16;;;;;;;4.95;2.40;;;9.70;99.90;;;;;;173853;28;1191;-75
2021/06/02 00:16:24;;;;;;;4.97;2.33;;;9.70;99.90;;;;;;173964;28;947;-76
2021/06/02 00:16:31;;;;;;;6.37;2.60;;;9.70;99.90;;;;;;173914;28;1389;-76
2021/06/02 00:16:38;;;;;;;6.30;2.72;;;9.70;99.90;;;;;;173842;28;1531;-76
2021/06/02 00:16:44;;;;;;;6.40;2.80;;;9.70;99.90;;;;;;172599;28;1294;-76
2021/06/02 00:16:52;;;;;;;6.43;2.83;;;9.70;99.90;;;;;;172681;28;871;-76
2021/06/02 00:16:59;;;;;;;5.20;2.60;;;9.70;99.90;;;;;;173139;28;1438;-76
2021/06/02 00:17:06;;;;;;;5.28;2.55;;;9.70;99.90;;;;;;172601;28;963;-75
2021/06/02 00:17:12;;;;;;;4.75;2.32;;;9.70;99.90;;;;;;172654;28;931;-76
2021/06/02 00:17:18;;;;;;;4.45;2.30;;;9.70;99.90;;;;;;172455;28;1342;-75
2021/06/02 00:17:24;;;;;;;4.05;2.40;;;9.70;99.90;;;;;;171976;28;867;-75
2021/06/02 00:17:30;;;;;;;3.88;2.45;;;9.70;99.90;;;;;;172673;28;1029;-76
2021/06/02 00:17:37;;;;;;;3.85;2.50;;;9.70;99.90;;;;;;172526;28;927;-76
2021/06/02 00:17:43;;;;;;;3.88;2.50;;;9.70;99.90;;;;;;173171;28;1301;-75
2021/06/02 00:17:52;;;;;;;4.22;2.53;;;9.70;99.90;;;;;;173857;28;1204;-76
2021/06/02 00:18:00;;;;;;;4.71;2.56;;;9.70;99.90;;;;;;173282;28;1035;-75
2021/06/02 00:18:06;;;;;;;4.73;2.60;;;9.70;99.90;;;;;;174534;28;1467;-75
2021/06/02 00:18:12;;;;;;;4.72;2.60;;;9.70;99.90;;;;;;173343;28;1010;-76
2021/06/02 00:18:18;;;;;;;5.34;2.76;;;9.70;99.90;;;;;;173849;28;1535;-75
2021/06/02 00:18:24;;;;;;;5.97;2.77;;;9.70;99.90;;;;;;174751;28;874;-75
2021/06/02 00:18:30;;;;;;;5.82;2.75;;;9.70;99.90;;;;;;173971;28;1018;-75
2021/06/02 00:18:37;;;;;;;6.22;2.70;;;9.70;99.90;;;;;;172446;28;1345;-75
2021/06/02 00:18:43;;;;;;;6.50;2.80;;;9.70;99.90;;;;;;172645;28;864;-76
2021/06/02 00:18:49;;;;;;;5.23;2.60;;;9.70;99.90;;;;;;174007;28;954;-76
2021/06/02 00:18:56;;;;;;;4.40;2.52;;;9.70;99.90;;;;;;173939;28;934;-76
2021/06/02 00:19:02;;;;;;;4.25;2.53;;;9.70;99.90;;;;;;173145;28;1386;-77
2021/06/02 00:19:08;;;;;;;4.00;2.63;;;9.70;99.90;;;;;;173870;28;1415;-75
2021/06/02 00:19:16;;;;;;;3.60;2.53;;;9.70;99.90;;;;;;173507;28;1130;-76
2021/06/02 00:19:23;;;;;;;4.73;2.60;;;9.70;99.90;;;;;;172540;28;1318;-76
2021/06/02 00:19:29;;;;;;;5.07;2.60;;;9.70;99.90;;;;;;172611;28;1363;-75
2021/06/02 00:19:35;;;;;;;5.00;2.58;;;9.70;99.90;;;;;;173283;28;1423;-76
2021/06/02 00:19:41;;;;;;;5.28;2.72;;;9.70;99.90;;;;;;173876;28;1227;-76
2021/06/02 00:19:46;;;;;;;5.18;2.65;;;9.70;99.90;;;;;;173901;28;1333;-75
2021/06/02 00:19:52;;;;;;;4.32;2.60;;;9.70;99.90;;;;;;173197;28;1387;-76
2021/06/02 00:19:59;;;;;;;4.25;2.70;;;9.70;99.90;;;;;;173232;28;923;-76
2021/06/02 00:20:10;;;;;;;4.20;2.70;;;9.70;99.90;;;;;;173867;28;1357;-76
2021/06/02 00:20:16;;;;;;;4.63;2.60;;;9.70;99.90;;;;;;173122;28;1428;-77
2021/06/02 00:20:21;;;;;;;4.65;2.60;;;9.70;99.90;;;;;;173942;28;931;-76
2021/06/02 00:20:28;;;;;;;4.32;2.50;;;9.70;99.90;;;;;;173317;28;875;-76
2021/06/02 00:20:34;;;;;;;5.34;2.50;;;9.70;99.90;;;;;;174530;28;1318;-75
2021/06/02 00:20:40;;;;;;;5.47;2.50;;;9.70;99.90;;;;;;173884;28;1306;-76
2021/06/02 00:20:46;;;;;;;5.10;2.50;;;9.70;99.90;;;;;;173260;28;1260;-76
2021/06/02 00:20:51;;;;;;;6.03;2.60;;;9.70;99.90;;;;;;172637;28;836;-75
2021/06/02 00:20:57;;;;;;;5.97;2.58;;;9.70;99.90;;;;;;172592;28;851;-76
2021/06/02 00:21:06;;;;;;;4.75;2.40;;;9.70;99.90;;;;;;173166;28;1312;-76
2021/06/02 00:21:12;;;;;;;4.96;2.39;;;9.70;99.90;;;;;;172558;28;1185;-75
2021/06/02 00:21:18;;;;;;;4.97;2.40;;;9.70;99.90;;;;;;172775;28;1193;-76
2021/06/02 00:21:24;;;;;;;5.10;2.42;;;9.70;99.90;;;;;;173912;28;1299;-75
2021/06/02 00:21:30;;;;;;;7.00;2.67;;;9.60;99.90;;;;;;173321;28;848;-76
2021/06/02 00:21:36;;;;;;;7.28;2.75;;;9.60;99.90;;;;;;173842;28;1381;-76
2021/06/02 00:21:42;;;;;;;7.87;2.73;;;9.60;99.90;;;;;;173237;28;1466;-75
2021/06/02 00:21:48;;;;;;;7.13;2.78;;;9.60;99.90;;;;;;172665;28;914;-76
2021/06/02 00:21:57;;;;;;;7.00;2.77;;;9.60;99.90;;;;;;172561;28;1356;-75
2021/06/02 00:22:08;;;;;;;5.26;2.69;;;9.70;99.90;;;;;;172490;28;1427;-75
2021/06/02 00:22:15;;;;;;;5.18;2.84;;;9.60;99.90;;;;;;172570;28;1214;-76
2021/06/02 00:22:21;;;;;;;4.70;2.83;;;9.60;99.90;;;;;;172458;28;951;-76
2021/06/02 00:22:27;;;;;;;4.63;2.83;;;9.60;99.90;;;;;;172641;28;876;-76
2021/06/02 00:22:33;;;;;;;4.93;2.60;;;9.70;99.90;;;;;;172652;28;871;-75
2021/06/02 00:22:39;;;;;;;4.07;2.50;;;9.60;99.90;;;;;;173261;28;824;-76
2021/06/02 00:22:46;;;;;;;3.97;2.45;;;9.60;99.90;;;;;;173253;28;1465;-76
2021/06/02 00:22:52;;;;;;;4.20;2.46;;;9.60;99.90;;;;;;173851;28;1435;-76
2021/06/02 00:22:58;;;;;;;4.60;2.53;;;9.60;99.90;;;;;;174012;28;859;-76
2021/06/02 00:23:05;;;;;;;4.98;2.72;;;9.60;99.90;;;;;;172513;28;1462;-76
2021/06/02 00:23:11;;;;;;;5.90;2.77;;;9.60;99.90;;;;;;172489;28;1270;-75
2021/06/02 00:23:17;;;;;;;6.32;2.67;;;9.60;99.90;;;;;;173263;28;975;-76
2021/06/02 00:23:23;;;;;;;6.70;2.65;;;9.60;99.90;;;;;;173924;28;1361;-76
2021/06/02 00:23:30;;;;;;;6.40;2.70;;;9.60;99.90;;;;;;173982;28;943;-75
2021/06/02 00:23:36;;;;;;;6.43;2.67;;;9.60;99.90;;;;;;174036;28;994;-76
2021/06/02 00:23:42;;;;;;;5.70;2.60;;;9.60;99.90;;;;;;173971;28;879;-75
2021/06/02 00:23:47;;;;;;;5.43;2.53;;;9.60;99.90;;;;;;172609;28;1359;-75
2021/06/02 00:23:53;;;;;;;5.72;2.50;;;9.60;99.90;;;;;;172683;28;808;-76
2021/06/02 00:23:59;;;;;;;5.18;2.45;;;9.60;99.90;;;;;;172647;28;1096;-76
2021/06/02 00:24:06;;;;;;;4.80;2.40;;;9.60;99.90;;;;;;173898;28;1350;-76
2021/06/02 00:24:12;;;;;;;4.88;2.50;;;9.70;99.90;;;;;;173363;28;922;-76
2021/06/02 00:24:18;;;;;;;4.88;2.60;;;9.60;99.90;;;;;;173806;28;1279;-76
2021/06/02 00:24:25;;;;;;;4.10;2.60;;;9.60;99.90;;;;;;172493;28;1331;-76
2021/06/02 00:24:32;;;;;;;4.28;2.60;;;9.60;99.90;;;;;;173209;28;1466;-75
2021/06/02 00:24:38;;;;;;;4.77;2.60;;;9.60;99.90;;;;;;173822;28;1396;-76
2021/06/02 00:24:44;;;;;;;6.08;2.58;;;9.60;99.90;;;;;;173349;28;955;-76
2021/06/02 00:24:50;;;;;;;6.20;2.70;;;9.60;99.90;;;;;;173324;28;911;-76
2021/06/02 00:24:56;;;;;;;7.82;2.88;;;9.60;99.90;;;;;;173198;28;1472;-76
2021/06/02 00:25:04;;;;;;;8.50;2.90;;;9.60;99.90;;;;;;173193;28;970;-76
2021/06/02 00:25:11;;;;;;;7.99;2.93;;;9.60;99.90;;;;;;173259;28;1013;-76
2021/06/02 00:25:16;;;;;;;7.37;2.83;;;9.60;99.90;;;;;;172654;28;983;-75
2021/06/02 00:25:22;;;;;;;6.63;2.63;;;9.60;99.90;;;;;;172778;28;1014;-76
2021/06/02 00:25:28;;;;;;;5.27;2.50;;;9.60;99.90;;;;;;173905;28;1436;-76
2021/06/02 00:25:34;;;;;;;4.97;2.40;;;9.60;99.90;;;;;;173288;28;1300;-76
2021/06/02 00:25:40;;;;;;;4.50;2.50;;;9.70;99.90;;;;;;173272;28;935;-76
2021/06/02 00:25:46;;;;;;;3.70;2.50;;;9.60;99.90;;;;;;173172;28;1358;-76
2021/06/02 00:25:52;;;;;;;4.05;2.55;;;9.60;99.90;;;;;;173899;28;1614;-76
2021/06/02 00:26:02;;;;;;;3.97;2.65;;;9.60;99.90;;;;;;172539;28;967;-75
2021/06/02 00:26:08;;;;;;;4.25;2.70;;;9.60;99.90;;;;;;173902;28;1378;-76
2021/06/02 00:26:16;;;;;;;4.47;2.70;;;9.60;99.90;;;;;;174726;28;910;-76
2021/06/02 00:26:22;;;;;;;4.83;2.60;;;9.60;99.90;;;;;;173869;28;1441;-76
2021/06/02 00:26:34;;;;;;;5.57;2.60;;;9.60;99.90;;;;;;173339;28;911;-76
2021/06/02 00:26:42;;;;;;;5.47;2.51;;;9.60;99.90;;;;;;173172;28;1189;-76
2021/06/02 00:26:52;;;;;;;5.50;2.50;;;9.60;99.90;;;;;;174019;28;922;-76
2021/06/02 00:27:02;;;;;;;6.18;2.49;;;9.60;99.90;;;;;;173239;28;1124;-76
2021/06/02 00:27:12;;;;;;;5.81;2.53;;;9.60;99.90;;;;;;173228;28;1190;-76
2021/06/02 00:27:18;;;;;;;5.97;2.80;;;9.60;99.90;;;;;;172563;28;977;-77
2021/06/02 00:27:25;;;;;;;4.85;2.90;;;9.60;99.90;;;;;;172654;28;844;-76
2021/06/02 00:27:33;;;;;;;4.80;2.90;;;9.60;99.90;;;;;;173346;28;1585;-76
2021/06/02 00:27:41;;;;;;;5.10;3.00;;;9.60;99.90;;;;;;174014;28;934;-76
2021/06/02 00:27:48;;;;;;;4.62;2.87;;;9.60;99.90;;;;;;173806;28;1639;-76
2021/06/02 00:27:55;;;;;;;4.00;2.63;;;9.60;99.90;;;;;;174674;28;1100;-76
2021/06/02 00:28:02;;;;;;;4.60;2.70;;;9.60;99.90;;;;;;175282;28;935;-76
2021/06/02 00:28:08;;;;;;;5.13;2.63;;;9.60;99.90;;;;;;174605;28;1419;-76
2021/06/02 00:28:16;;;;;;;5.22;2.60;;;9.60;99.90;;;;;;173278;28;1577;-76
2021/06/02 00:28:22;;;;;;;5.35;2.72;;;9.60;99.90;;;;;;173740;28;1567;-76
2021/06/02 00:28:29;;;;;;;5.30;2.77;;;9.60;99.90;;;;;;173559;28;930;-76
2021/06/02 00:28:35;;;;;;;6.60;2.90;;;9.60;99.90;;;;;;173852;28;1308;-75
2021/06/02 00:28:42;;;;;;;6.28;3.05;;;9.60;99.90;;;;;;173269;28;942;-75
2021/06/02 00:28:49;;;;;;;7.98;3.06;;;9.60;99.90;;;;;;172612;28;884;-76
2021/06/02 00:28:54;;;;;;;8.64;3.10;;;9.60;99.90;;;;;;173229;28;1366;-76
2021/06/02 00:29:04;;;;;;;7.60;2.95;;;9.60;99.90;;;;;;173943;28;878;-76
2021/06/02 00:29:14;;;;;;;6.99;2.84;;;9.60;99.90;;;;;;173958;28;1015;-76
2021/06/02 00:29:24;;;;;;;6.07;2.81;;;9.60;99.90;;;;;;173771;28;1492;-76
2021/06/02 00:29:33;;;;;;;5.28;2.76;;;9.60;99.90;;;;;;173992;28;1120;-76
2021/06/02 00:29:45;;;;;;;5.07;2.60;;;9.60;99.90;;;;;;174683;28;1036;-76
2021/06/02 00:29:52;;;;;;;3.99;2.49;;;9.70;99.90;;;;;;174480;28;1339;-76
2021/06/02 00:30:02;;;;;;;3.40;2.28;;;9.60;99.90;;;;;;174058;28;854;-76
2021/06/02 00:30:10;;;;;;;3.31;2.24;;;9.60;99.90;;;;;;173054;28;1585;-76
2021/06/02 00:30:18;;;;;;;3.57;2.20;;;9.60;99.90;;;;;;172531;28;1464;-75
2021/06/02 00:30:24;;;;;;;4.03;2.27;;;9.60;99.90;;;;;;172060;28;1372;-76
2021/06/02 00:30:32;;;;;;;4.27;2.30;;;9.60;99.90;;;;;;173226;28;1372;-76
2021/06/02 00:30:39;;;;;;;4.90;2.46;;;9.60;99.90;;;;;;173309;28;919;-75
2021/06/02 00:30:45;;;;;;;4.10;2.50;;;9.60;99.90;;;;;;173227;28;1558;-76
2021/06/02 00:30:51;;;;;;;4.13;2.50;;;9.60;99.90;;;;;;174045;28;1005;-75
2021/06/02 00:30:58;;;;;;;3.88;2.50;;;9.60;99.90;;;;;;173987;28;840;-75
2021/06/02 00:31:06;;;;;;;3.74;2.56;;;9.60;99.90;;;;;;173843;28;1374;-75
2021/06/02 00:31:12;;;;;;;3.53;2.43;;;9.60;99.90;;;;;;174657;28;938;-76
2021/06/02 00:31:19;;;;;;;4.24;2.50;;;9.60;99.90;;;;;;173208;28;1395;-75
2021/06/02 00:31:26;;;;;;;5.27;2.60;;;9.60;99.90;;;;;;173212;28;1354;-76
2021/06/02 00:31:33;;;;;;;6.43;2.67;;;9.60;99.90;;;;;;174130;28;1260;-77
2021/06/02 00:31:43;;;;;;;6.74;2.70;;;9.60;99.90;;;;;;173928;28;1014;-76
2021/06/02 00:31:50;;;;;;;6.19;2.71;;;9.60;99.90;;;;;;173905;28;1100;-76
2021/06/02 00:31:56;;;;;;;5.70;2.60;;;9.60;99.90;;;;;;174009;28;1136;-76
2021/06/02 00:32:05;;;;;;;4.63;2.55;;;9.60;99.90;;;;;;173242;28;1441;-76
2021/06/02 00:32:14;;;;;;;5.23;2.47;;;9.60;99.90;;;;;;173213;28;1420;-76
2021/06/02 00:32:21;;;;;;;6.21;2.49;;;9.60;99.90;;;;;;173926;28;1034;-77
2021/06/02 00:32:28;;;;;;;5.54;2.46;;;9.60;99.90;;;;;;173910;28;847;-76
2021/06/02 00:32:34;;;;;;;5.73;2.57;;;9.60;99.90;;;;;;173263;28;1327;-76
2021/06/02 00:32:41;;;;;;;4.63;2.70;;;9.60;99.90;;;;;;173208;28;1479;-76
2021/06/02 00:32:47;;;;;;;4.78;2.68;;;9.60;99.90;;;;;;173299;28;942;-76
2021/06/02 00:32:58;;;;;;;5.10;2.70;;;9.60;99.90;;;;;;174044;28;976;-76
2021/06/02 00:33:05;;;;;;;6.48;2.73;;;9.60;99.90;;;;;;174432;28;1415;-75
2021/06/02 00:33:12;;;;;;;7.02;2.70;;;9.60;99.90;;;;;;174650;28;1051;-76
2021/06/02 00:33:19;;;;;;;6.26;2.70;;;9.60;99.90;;;;;;173233;28;1454;-75
2021/06/02 00:33:25;;;;;;;5.40;2.70;;;9.60;99.90;;;;;;173183;28;1493;-75
2021/06/02 00:33:31;;;;;;;4.88;2.75;;;9.60;99.90;;;;;;173301;28;926;-75
2021/06/02 00:33:37;;;;;;;4.73;2.60;;;9.60;99.90;;;;;;172457;28;1217;-75
2021/06/02 00:33:43;;;;;;;4.22;2.60;;;9.60;99.90;;;;;;172720;28;1226;-76
2021/06/02 00:33:49;;;;;;;4.75;2.65;;;9.60;99.90;;;;;;173233;28;910;-76
2021/06/02 00:33:55;;;;;;;5.10;2.57;;;9.60;99.90;;;;;;173329;28;915;-75
2021/06/02 00:34:04;;;;;;;5.53;2.50;;;9.60;99.90;;;;;;173962;28;973;-76
2021/06/02 00:34:10;;;;;;;6.60;2.67;;;9.60;99.90;;;;;;173135;28;891;-76
2021/06/02 00:34:17;;;;;;;6.78;2.67;;;9.60;99.90;;;;;;174046;28;1483;-76
2021/06/02 00:34:24;;;;;;;6.52;2.78;;;9.60;99.90;;;;;;173268;28;941;-76
2021/06/02 00:34:30;;;;;;;6.70;2.76;;;9.60;99.90;;;;;;173246;28;852;-76
2021/06/02 00:34:37;;;;;;;6.18;2.75;;;9.60;99.90;;;;;;172829;28;1151;-77
2021/06/02 00:34:44;;;;;;;6.14;2.62;;;9.60;99.90;;;;;;173288;28;1277;-76
2021/06/02 00:34:50;;;;;;;6.02;2.46;;;9.60;99.90;;;;;;173268;28;1033;-76
2021/06/02 00:34:57;;;;;;;5.20;2.30;;;9.60;99.90;;;;;;173929;28;1284;-76
2021/06/02 00:35:06;;;;;;;4.90;2.30;;;9.60;99.90;;;;;;173907;28;890;-76
2021/06/02 00:35:16;;;;;;;4.46;2.23;;;9.60;99.90;;;;;;173089;28;1116;-76
2021/06/02 00:35:22;;;;;;;6.03;2.37;;;9.60;99.90;;;;;;173835;28;1394;-76
2021/06/02 00:35:28;;;;;;;6.70;2.42;;;9.60;99.90;;;;;;173857;28;1984;-76
2021/06/02 00:35:34;;;;;;;6.87;2.47;;;9.60;99.90;;;;;;173408;28;815;-75
2021/06/02 00:35:43;;;;;;;7.68;2.63;;;9.60;99.90;;;;;;172675;28;840;-76
2021/06/02 00:35:52;;;;;;;6.43;2.70;;;9.60;99.90;;;;;;173798;28;1307;-76
2021/06/02 00:36:01;;;;;;;6.70;2.60;;;9.60;99.90;;;;;;173989;28;855;-76
2021/06/02 00:36:11;;;;;;;6.60;2.61;;;9.60;99.90;;;;;;174579;28;1018;-75
2021/06/02 00:36:20;;;;;;;5.88;2.46;;;9.60;99.90;;;;;;174580;28;1585;-75
2021/06/02 00:36:28;;;;;;;4.17;2.30;;;9.60;99.90;;;;;;173246;28;859;-76
2021/06/02 00:36:34;;;;;;;4.27;2.23;;;9.60;99.90;;;;;;173781;28;1323;-76
2021/06/02 00:36:43;;;;;;;4.25;2.20;;;9.60;99.90;;;;;;172551;28;1305;-77
2021/06/02 00:36:49;;;;;;;4.20;2.33;;;9.60;99.90;;;;;;173208;28;1026;-76
2021/06/02 00:36:59;;;;;;;5.00;2.50;;;9.60;99.90;;;;;;173189;28;1348;-76
2021/06/02 00:37:09;;;;;;;6.87;2.70;;;9.60;99.90;;;;;;173889;28;1370;-76
2021/06/02 00:37:15;;;;;;;6.54;2.64;;;9.60;99.90;;;;;;174004;28;1118;-76
2021/06/02 00:37:22;;;;;;;6.33;2.50;;;9.60;99.90;;;;;;174013;28;800;-76
2021/06/02 00:37:29;;;;;;;6.30;2.47;;;9.60;99.90;;;;;;173896;28;911;-76
2021/06/02 00:37:35;;;;;;;4.85;2.40;;;9.60;99.90;;;;;;174036;28;917;-76
2021/06/02 00:37:41;;;;;;;4.80;2.42;;;9.60;99.90;;;;;;174231;28;1227;-76
2021/06/02 00:37:49;;;;;;;6.50;2.58;;;9.60;99.90;;;;;;173941;28;931;-76
2021/06/02 00:37:55;;;;;;;6.50;2.70;;;9.60;99.90;;;;;;172659;28;1038;-76
2021/06/02 00:38:01;;;;;;;6.40;2.67;;;9.60;99.90;;;;;;173297;28;1002;-76
2021/06/02 00:38:08;;;;;;;6.32;2.70;;;9.60;99.90;;;;;;173251;28;1109;-76
2021/06/02 00:38:14;;;;;;;5.70;2.70;;;9.60;99.90;;;;;;173214;28;1538;-75
2021/06/02 00:38:20;;;;;;;5.67;2.83;;;9.50;99.90;;;;;;173301;28;856;-75
2021/06/02 00:38:26;;;;;;;5.07;2.80;;;9.60;99.90;;;;;;173223;28;824;-76
2021/06/02 00:38:34;;;;;;;5.13;2.80;;;9.60;99.90;;;;;;173138;28;1471;-75
2021/06/02 00:38:41;;;;;;;5.00;2.77;;;9.60;99.90;;;;;;173248;28;927;-75
2021/06/02 00:38:47;;;;;;;4.50;2.53;;;9.60;99.90;;;;;;173116;28;1266;-76
2021/06/02 00:38:53;;;;;;;5.10;2.50;;;9.60;99.90;;;;;;173956;28;1025;-75
2021/06/02 00:39:01;;;;;;;5.00;2.50;;;9.60;99.90;;;;;;173246;28;1473;-75
2021/06/02 00:39:08;;;;;;;4.97;2.43;;;9.60;99.90;;;;;;173156;28;1565;-76
2021/06/02 00:39:15;;;;;;;4.80;2.60;;;9.60;99.90;;;;;;173928;28;867;-76
2021/06/02 00:39:21;;;;;;;4.68;2.76;;;9.60;99.90;;;;;;173871;28;1485;-75
2021/06/02 00:39:27;;;;;;;5.60;2.87;;;9.60;99.90;;;;;;172454;28;1591;-76
2021/06/02 00:39:34;;;;;;;5.97;3.00;;;9.60;99.90;;;;;;173236;28;1271;-75
2021/06/02 00:39:44;;;;;;;6.73;2.90;;;9.60;99.90;;;;;;172550;28;1447;-76
2021/06/02 00:39:52;;;;;;;6.47;2.80;;;9.60;99.90;;;;;;173812;28;1144;-76
2021/06/02 00:39:59;;;;;;;7.07;2.63;;;9.60;99.90;;;;;;174688;28;946;-76